Ria Da Coruna — EAGB — position and weather

sailwx.info

Track history (hours):
 
Tides and Currents Weather Stations Pressure Air Temp Water Temp Dewpoint Dewpoint Depression Visibility Wind Speed Wind Dir Waves Ship Positions

Ria Da Coruna

Last reported at 2017-Sep-25 18:16 UTC. Time now 2017-Sep-25 18:53 UTC.
Position N 43°21' W 001°60'.

Length 28 m.

Type: Fishing. MMSI: 224068650.

Date/timePositionNaut miles runAvg speedWind from/ knotsBaromVisibWave heightAir tempDewpointWater temp
2017-Sep-25 18:16N 43°21' W 001°60'1 2.3
2017-Sep-25 17:56N 43°22' W 001°59'1 0.1
2017-Sep-25 02:45N 43°21' W 002°00'1 2.9
2017-Sep-25 02:15N 43°21' W 001°58'0 0.3
2017-Sep-25 02:00N 43°21' W 001°58'3 2.5
2017-Sep-25 00:41N 43°19' W 001°55'1 3.1
2017-Sep-25 00:18N 43°20' W 001°56'1 0.6
2017-Sep-24 22:13N 43°21' W 001°57'10 4.6
2017-Sep-24 20:04N 43°19' W 002°10'110.6
2017-Sep-24 20:00N 43°18' W 002°11'1 0.4
2017-Sep-24 18:36N 43°18' W 002°12'0 0.0
2017-Sep-24 18:28N 43°18' W 002°12'0 0.0
2017-Sep-24 17:58N 43°18' W 002°12'  
Track history (hours):
 
Tides and Currents Weather Stations Pressure Air Temp Water Temp Dewpoint Dewpoint Depression Visibility Wind Speed Wind Dir Waves Ship Positions

Ria Da Coruna

Last reported at 2017-Sep-25 18:16 UTC. Time now 2017-Sep-25 18:53 UTC.
Position N 43°21' W 001°60'.

Length 28 m.

Type: Fishing. MMSI: 224068650.

Date/timePositionNaut miles runAvg speedWind from/ knotsBaromVisibWave heightAir tempDewpointWater temp
2017-Sep-25 18:16N 43°21' W 001°60'1 2.3
2017-Sep-25 17:56N 43°22' W 001°59'1 0.1
2017-Sep-25 02:45N 43°21' W 002°00'1 2.9
2017-Sep-25 02:15N 43°21' W 001°58'0 0.3
2017-Sep-25 02:00N 43°21' W 001°58'3 2.5
2017-Sep-25 00:41N 43°19' W 001°55'1 3.1
2017-Sep-25 00:18N 43°20' W 001°56'1 0.6
2017-Sep-24 22:13N 43°21' W 001°57'10 4.6
2017-Sep-24 20:04N 43°19' W 002°10'110.6
2017-Sep-24 20:00N 43°18' W 002°11'1 0.4
2017-Sep-24 18:36N 43°18' W 002°12'0 0.0
2017-Sep-24 18:28N 43°18' W 002°12'0 0.0
2017-Sep-24 17:58N 43°18' W 002°12'  

Dump ship's entire track history